Time;durP1;ratioP1;P1;durP2;ratioP2;P2;SDS_P1;SDS_P2;PMS_P1;PMS_P2;Temp;Humidity;BMP_temperature;BMP_pressure;BME280_temperature;BME280_humidity;BME280_pressure;Samples;Min_cycle;Max_cycle;Signal;HPM_P1;HPM_P2
2023/10/27 00:01:53;;;;;;;;;;;;;;;;;;5068672;28;20335;-55
2023/10/27 00:04:19;;;;;;;;;;;;;;;;;;5063371;28;19919;-55
2023/10/27 00:06:45;;;;;;;;;;;;;;;;;;5070235;28;19912;-55
2023/10/27 00:09:11;;;;;;;;;;;;;;;;;;5069700;28;20420;-55
2023/10/27 00:11:37;;;;;;;;;;;;;;;;;;5073900;28;20699;-55
2023/10/27 00:14:03;;;;;;;;;;;;;;;;;;5068985;28;20375;-55
2023/10/27 00:16:29;;;;;;;;;;;;;;;;;;5066423;28;20005;-55
2023/10/27 00:18:55;;;;;;;;;;;;;;;;;;5079204;28;20034;-55
2023/10/27 00:21:21;;;;;;;;;;;;;;;;;;5064387;28;19912;-55
2023/10/27 00:23:47;;;;;;;;;;;;;;;;;;5074570;28;20030;-55
2023/10/27 00:26:13;;;;;;;;;;;;;;;;;;5073179;28;20399;-55
2023/10/27 00:28:39;;;;;;;;;;;;;;;;;;5069376;28;19912;-55
2023/10/27 00:31:05;;;;;;;;;;;;;;;;;;5069761;28;19920;-55
2023/10/27 00:33:31;;;;;;;;;;;;;;;;;;5059127;28;19956;-55
2023/10/27 00:35:57;;;;;;;;;;;;;;;;;;5066807;28;19924;-55
2023/10/27 00:38:23;;;;;;;;;;;;;;;;;;5069674;28;19952;-55
2023/10/27 00:40:49;;;;;;;;;;;;;;;;;;5066926;28;19959;-55
2023/10/27 00:43:18;;;;;;;;;;;;;;;;;;5068403;28;19923;-55
2023/10/27 00:45:44;;;;;;;;;;;;;;;;;;5060139;28;20003;-55
2023/10/27 00:48:10;;;;;;;;;;;;;;;;;;5060800;28;20545;-55
2023/10/27 00:50:37;;;;;;;;;;;;;;;;;;5071360;28;19947;-55
2023/10/27 00:53:03;;;;;;;;;;;;;;;;;;5070131;28;19919;-55
2023/10/27 00:55:29;;;;;;;;;;;;;;;;;;5070395;28;19905;-55
2023/10/27 00:57:55;;;;;;;;;;;;;;;;;;5066726;28;20054;-55
2023/10/27 01:00:21;;;;;;;;;;;;;;;;;;5069320;28;19908;-55
2023/10/27 01:02:47;;;;;;;;;;;;;;;;;;5065207;28;19971;-55
2023/10/27 01:05:15;;;;;;;;;;;;;;;;;;5061293;28;19908;-55
2023/10/27 01:07:41;;;;;;;;;;;;;;;;;;5068620;28;19962;-55
2023/10/27 01:10:07;;;;;;;;;;;;;;;;;;5067153;28;19916;-56
2023/10/27 01:12:33;;;;;;;;;;;;;;;;;;5066669;28;20002;-56
2023/10/27 01:14:59;;;;;;;;;;;;;;;;;;5065902;28;19923;-56
2023/10/27 01:17:25;;;;;;;;;;;;;;;;;;5069362;28;19917;-56
2023/10/27 01:19:51;;;;;;;;;;;;;;;;;;5069087;28;20246;-55
2023/10/27 01:22:17;;;;;;;;;;;;;;;;;;5069582;28;19912;-55
2023/10/27 01:24:44;;;;;;;;;;;;;;;;;;5069536;28;19904;-55
2023/10/27 01:27:10;;;;;;;;;;;;;;;;;;5069441;28;19944;-55
2023/10/27 01:29:35;;;;;;;;;;;;;;;;;;5069143;28;20331;-55
2023/10/27 01:32:01;;;;;;;;;;;;;;;;;;5061662;28;19916;-55
2023/10/27 01:34:28;;;;;;;;;;;;;;;;;;5054538;28;19909;-55
2023/10/27 01:36:54;;;;;;;;;;;;;;;;;;5067042;28;20693;-55
2023/10/27 01:39:20;;;;;;;;;;;;;;;;;;5069649;28;19912;-55
2023/10/27 01:41:46;;;;;;;;;;;;;;;;;;5066052;28;20343;-55
2023/10/27 01:44:12;;;;;;;;;;;;;;;;;;5063064;28;20648;-55
2023/10/27 01:46:38;;;;;;;;;;;;;;;;;;5068522;28;19946;-55
2023/10/27 01:49:04;;;;;;;;;;;;;;;;;;5067825;28;19950;-56
2023/10/27 01:51:30;;;;;;;;;;;;;;;;;;5068347;28;19915;-55
2023/10/27 01:53:56;;;;;;;;;;;;;;;;;;5059423;28;19917;-55
2023/10/27 01:56:22;;;;;;;;;;;;;;;;;;5063577;28;20043;-56
2023/10/27 01:58:48;;;;;;;;;;;;;;;;;;5067194;28;20375;-55
2023/10/27 02:01:14;;;;;;;;;;;;;;;;;;5062395;28;19955;-55
2023/10/27 02:03:40;;;;;;;;;;;;;;;;;;5060726;28;19913;-55
2023/10/27 02:06:06;;;;;;;;;;;;;;;;;;5069667;28;19912;-55
2023/10/27 02:08:35;;;;;;;;;;;;;;;;;;5065054;28;19939;-55
2023/10/27 02:11:01;;;;;;;;;;;;;;;;;;5074017;28;20108;-55
2023/10/27 02:13:28;;;;;;;;;;;;;;;;;;5058293;28;20002;-55
2023/10/27 02:15:54;;;;;;;;;;;;;;;;;;5069156;28;20367;-55
2023/10/27 02:18:20;;;;;;;;;;;;;;;;;;5068914;28;19916;-55
2023/10/27 02:20:46;;;;;;;;;;;;;;;;;;5068922;28;19908;-55
2023/10/27 02:23:18;;;;;;;;;;;;;;;;;;5070171;28;19963;-55
2023/10/27 02:25:44;;;;;;;;;;;;;;;;;;5069510;28;19905;-55
2023/10/27 02:28:10;;;;;;;;;;;;;;;;;;5060152;28;20308;-55
2023/10/27 02:30:36;;;;;;;;;;;;;;;;;;5067485;28;19919;-55
2023/10/27 02:33:02;;;;;;;;;;;;;;;;;;5063154;28;20662;-55
2023/10/27 02:35:28;;;;;;;;;;;;;;;;;;5066868;28;19967;-55
2023/10/27 02:37:54;;;;;;;;;;;;;;;;;;5066921;28;20006;-55
2023/10/27 02:40:20;;;;;;;;;;;;;;;;;;5066762;28;19913;-55
2023/10/27 02:42:46;;;;;;;;;;;;;;;;;;5064545;28;19915;-55
2023/10/27 02:45:15;;;;;;;;;;;;;;;;;;5065063;28;19908;-55
2023/10/27 02:47:41;;;;;;;;;;;;;;;;;;5064807;28;19918;-56
2023/10/27 02:50:07;;;;;;;;;;;;;;;;;;5072329;28;19917;-55
2023/10/27 02:52:33;;;;;;;;;;;;;;;;;;5066686;28;19918;-55
2023/10/27 02:54:59;;;;;;;;;;;;;;;;;;5063662;28;20383;-55
2023/10/27 02:57:25;;;;;;;;;;;;;;;;;;5065676;28;19943;-55
2023/10/27 02:59:51;;;;;;;;;;;;;;;;;;5065406;28;20390;-55
2023/10/27 03:02:18;;;;;;;;;;;;;;;;;;5065008;28;19912;-55
2023/10/27 03:04:44;;;;;;;;;;;;;;;;;;5055179;28;20395;-55
2023/10/27 03:07:10;;;;;;;;;;;;;;;;;;5060970;28;19952;-55
2023/10/27 03:09:36;;;;;;;;;;;;;;;;;;5054878;28;19962;-55
2023/10/27 03:12:01;;;;;;;;;;;;;;;;;;5075503;28;19977;-55
2023/10/27 03:14:27;;;;;;;;;;;;;;;;;;5063675;28;19916;-55
2023/10/27 03:16:53;;;;;;;;;;;;;;;;;;5064409;28;19967;-55
2023/10/27 03:19:19;;;;;;;;;;;;;;;;;;5066658;28;20047;-55
2023/10/27 03:21:45;;;;;;;;;;;;;;;;;;5065371;28;19913;-55
2023/10/27 03:24:11;;;;;;;;;;;;;;;;;;5063255;28;19951;-55
2023/10/27 03:26:38;;;;;;;;;;;;;;;;;;5061093;28;20829;-55
2023/10/27 03:29:04;;;;;;;;;;;;;;;;;;5063090;28;20348;-55
2023/10/27 03:31:30;;;;;;;;;;;;;;;;;;5062228;28;20063;-55
2023/10/27 03:33:56;;;;;;;;;;;;;;;;;;5061086;28;20003;-55
2023/10/27 03:36:22;;;;;;;;;;;;;;;;;;5066462;28;19951;-55
2023/10/27 03:38:48;;;;;;;;;;;;;;;;;;5067511;28;19958;-55
2023/10/27 03:41:14;;;;;;;;;;;;;;;;;;5060967;28;19912;-55
2023/10/27 03:43:40;;;;;;;;;;;;;;;;;;5065905;28;20391;-55
2023/10/27 03:46:07;;;;;;;;;;;;;;;;;;5065236;28;20373;-54
2023/10/27 03:48:36;;;;;;;;;;;;;;;;;;5061885;28;19912;-54
2023/10/27 03:51:02;;;;;;;;;;;;;;;;;;5066005;28;19919;-54
2023/10/27 03:53:28;;;;;;;;;;;;;;;;;;5064598;28;19962;-55
2023/10/27 03:55:54;;;;;;;;;;;;;;;;;;5064888;28;20371;-53
2023/10/27 03:58:20;;;;;;;;;;;;;;;;;;5061643;28;19912;-54
2023/10/27 04:00:46;;;;;;;;;;;;;;;;;;5063113;28;19944;-54
2023/10/27 04:03:11;;;;;;;;;;;;;;;;;;5067596;28;20338;-55
2023/10/27 04:05:40;;;;;;;;;;;;;;;;;;5065433;28;20359;-53
2023/10/27 04:08:06;;;;;;;;;;;;;;;;;;5064151;28;19942;-54
2023/10/27 04:10:33;;;;;;;;;;;;;;;;;;5062927;28;20019;-54
2023/10/27 04:12:59;;;;;;;;;;;;;;;;;;5066188;28;19912;-54
2023/10/27 04:15:25;;;;;;;;;;;;;;;;;;5067439;28;19939;-55
2023/10/27 04:17:51;;;;;;;;;;;;;;;;;;5052813;28;19932;-53
2023/10/27 04:20:17;;;;;;;;;;;;;;;;;;5063159;28;19948;-54
2023/10/27 04:22:43;;;;;;;;;;;;;;;;;;5065656;28;19918;-53
2023/10/27 04:25:10;;;;;;;;;;;;;;;;;;5083416;28;19977;-53
2023/10/27 04:27:36;;;;;;;;;;;;;;;;;;5072238;28;20351;-54
2023/10/27 04:30:04;;;;;;;;;;;;;;;;;;5068455;28;19916;-55
2023/10/27 04:32:31;;;;;;;;;;;;;;;;;;5067180;28;20000;-56
2023/10/27 04:34:57;;;;;;;;;;;;;;;;;;5067798;28;19932;-55
2023/10/27 04:37:23;;;;;;;;;;;;;;;;;;5067249;28;19944;-55
2023/10/27 04:39:50;;;;;;;;;;;;;;;;;;5068352;28;19968;-56
2023/10/27 04:42:18;;;;;;;;;;;;;;;;;;5068310;28;19919;-56
2023/10/27 04:44:44;;;;;;;;;;;;;;;;;;5070066;28;20392;-56
2023/10/27 04:47:10;;;;;;;;;;;;;;;;;;5070807;28;20346;-56
2023/10/27 04:49:36;;;;;;;;;;;;;;;;;;5069122;28;20367;-56
2023/10/27 04:52:02;;;;;;;;;;;;;;;;;;5068734;28;19958;-56
2023/10/27 04:54:28;;;;;;;;;;;;;;;;;;5071517;28;20252;-56
2023/10/27 04:56:54;;;;;;;;;;;;;;;;;;5071300;28;20014;-59
2023/10/27 04:59:20;;;;;;;;;;;;;;;;;;5071079;28;19912;-59
2023/10/27 05:01:46;;;;;;;;;;;;;;;;;;5069736;28;20025;-59
2023/10/27 05:04:12;;;;;;;;;;;;;;;;;;5071068;28;20019;-59
2023/10/27 05:06:38;;;;;;;;;;;;;;;;;;5070481;28;20309;-59
2023/10/27 05:09:04;;;;;;;;;;;;;;;;;;5071366;28;19912;-59
2023/10/27 05:11:30;;;;;;;;;;;;;;;;;;5070958;28;19923;-59
2023/10/27 05:13:56;;;;;;;;;;;;;;;;;;5070863;28;19947;-59
2023/10/27 05:16:22;;;;;;;;;;;;;;;;;;5062764;28;19966;-59
2023/10/27 05:18:48;;;;;;;;;;;;;;;;;;5069696;28;19960;-59
2023/10/27 05:21:15;;;;;;;;;;;;;;;;;;5070471;28;20378;-59
2023/10/27 05:23:42;;;;;;;;;;;;;;;;;;5069365;28;19939;-59
2023/10/27 05:26:08;;;;;;;;;;;;;;;;;;5070892;28;19919;-59
2023/10/27 05:28:33;;;;;;;;;;;;;;;;;;5069431;28;19944;-58
2023/10/27 05:31:00;;;;;;;;;;;;;;;;;;5064484;28;20109;-58
2023/10/27 05:33:26;;;;;;;;;;;;;;;;;;5069464;28;20342;-57
2023/10/27 05:35:52;;;;;;;;;;;;;;;;;;5069483;28;20335;-58
2023/10/27 05:38:18;;;;;;;;;;;;;;;;;;5070514;28;19905;-59
2023/10/27 05:40:44;;;;;;;;;;;;;;;;;;5069841;28;19915;-59
2023/10/27 05:43:12;;;;;;;;;;;;;;;;;;5070551;28;20013;-59
2023/10/27 05:45:37;;;;;;;;;;;;;;;;;;5070501;28;20036;-58
2023/10/27 05:48:03;;;;;;;;;;;;;;;;;;5069825;28;20026;-59
2023/10/27 05:50:29;;;;;;;;;;;;;;;;;;5070460;28;20370;-59
2023/10/27 05:52:55;;;;;;;;;;;;;;;;;;5070468;28;19961;-59
2023/10/27 05:55:21;;;;;;;;;;;;;;;;;;5070487;28;19957;-59
2023/10/27 05:57:47;;;;;;;;;;;;;;;;;;5070522;28;20337;-58
2023/10/27 06:00:13;;;;;;;;;;;;;;;;;;5070611;28;19991;-58
2023/10/27 06:02:39;;;;;;;;;;;;;;;;;;5069567;28;19948;-59
2023/10/27 06:05:05;;;;;;;;;;;;;;;;;;5070739;28;19909;-55
2023/10/27 06:07:31;;;;;;;;;;;;;;;;;;5069634;28;19913;-55
2023/10/27 06:09:57;;;;;;;;;;;;;;;;;;5070471;28;19923;-55
2023/10/27 06:12:23;;;;;;;;;;;;;;;;;;5070226;28;19965;-55
2023/10/27 06:14:50;;;;;;;;;;;;;;;;;;5066707;28;20237;-55
2023/10/27 06:17:16;;;;;;;;;;;;;;;;;;5062818;28;19935;-55
2023/10/27 06:19:43;;;;;;;;;;;;;;;;;;5070573;28;20357;-55
2023/10/27 06:22:09;;;;;;;;;;;;;;;;;;5069330;28;19908;-55
2023/10/27 06:24:35;;;;;;;;;;;;;;;;;;5070779;28;19993;-55
2023/10/27 06:27:03;;;;;;;;;;;;;;;;;;5069906;28;19973;-55
2023/10/27 06:29:29;;;;;;;;;;;;;;;;;;5070132;28;19904;-56
2023/10/27 06:31:55;;;;;;;;;;;;;;;;;;5068550;28;19923;-55
2023/10/27 06:34:21;;;;;;;;;;;;;;;;;;5068281;28;20243;-55
2023/10/27 06:36:47;;;;;;;;;;;;;;;;;;5067077;28;19912;-58
2023/10/27 06:39:13;;;;;;;;;;;;;;;;;;5066175;28;19919;-56
2023/10/27 06:41:40;;;;;;;;;;;;;;;;;;5065371;28;19961;-56
2023/10/27 06:44:06;;;;;;;;;;;;;;;;;;5067051;28;20385;-56
2023/10/27 06:46:32;;;;;;;;;;;;;;;;;;5059172;28;19931;-59
2023/10/27 06:48:58;;;;;;;;;;;;;;;;;;5070076;28;19943;-56
2023/10/27 06:51:24;;;;;;;;;;;;;;;;;;5068776;28;20340;-56
2023/10/27 06:53:50;;;;;;;;;;;;;;;;;;5069703;28;19909;-56
2023/10/27 06:56:16;;;;;;;;;;;;;;;;;;5069122;28;19956;-56
2023/10/27 06:58:42;;;;;;;;;;;;;;;;;;5069860;28;20368;-56
2023/10/27 07:01:09;;;;;;;;;;;;;;;;;;5067017;28;19995;-56
2023/10/27 07:03:37;;;;;;;;;;;;;;;;;;5068941;28;20292;-55
2023/10/27 07:06:06;;;;;;;;;;;;;;;;;;5068408;28;19908;-55
2023/10/27 07:08:32;;;;;;;;;;;;;;;;;;5069224;28;20026;-56
2023/10/27 07:10:59;;;;;;;;;;;;;;;;;;5069292;28;19924;-55
2023/10/27 07:13:25;;;;;;;;;;;;;;;;;;5069435;28;19995;-56
2023/10/27 07:15:51;;;;;;;6.85;3.60;;;;;;;;;;5060373;28;19935;-57
2023/10/27 07:18:17;;;;;;;7.67;3.23;;;;;;;;;;5068194;28;20627;-57
2023/10/27 07:20:44;;;;;;;4.75;2.90;;;;;;;;;;5068238;28;20172;-56
2023/10/27 07:23:10;;;;;;;5.53;3.27;;;;;;;;;;5069010;28;20165;-57
2023/10/27 07:25:37;;;;;;;5.33;3.37;;;;;;;;;;5068866;28;20161;-57
2023/10/27 07:28:07;;;;;;;6.95;3.75;;;;;;;;;;5068366;28;20176;-57
2023/10/27 07:30:36;;;;;;;8.10;3.93;;;;;;;;;;5068064;28;20211;-57
2023/10/27 07:33:03;;;;;;;7.37;3.60;;;;;;;;;;5067287;28;20224;-58
2023/10/27 07:35:31;;;;;;;4.47;3.00;;;;;;;;;;5066448;28;20540;-57
2023/10/27 07:37:58;;;;;;;5.10;3.77;;;;;;;;;;5067347;28;20181;-57
2023/10/27 07:40:25;;;;;;;5.77;3.47;;;;;;;;;;5083714;28;25074;-57
2023/10/27 07:42:51;;;;;;;6.57;3.40;;;;;;;;;;5068428;28;20181;-57
2023/10/27 07:45:17;;;;;;;8.63;3.43;;;;;;;;;;5066855;28;20524;-57
2023/10/27 07:47:44;;;;;;;4.27;3.03;;;;;;;;;;5064452;28;20269;-57
2023/10/27 07:50:11;;;;;;;4.70;3.00;;;;;;;;;;5068141;28;20201;-57
2023/10/27 07:52:38;;;;;;;8.13;3.30;;;;;;;;;;5067685;28;20186;-56
2023/10/27 07:55:06;;;;;;;3.70;2.90;;;;;;;;;;5068465;28;20161;-57
2023/10/27 07:57:34;;;;;;;6.17;2.83;;;;;;;;;;5067685;28;20275;-57
2023/10/27 08:00:00;;;;;;;13.03;2.87;;;;;;;;;;5068326;28;20160;-57
2023/10/27 08:02:27;;;;;;;6.30;3.20;;;;;;;;;;5061998;28;20166;-57
2023/10/27 08:04:53;;;;;;;3.00;2.70;;;;;;;;;;5048382;28;20161;-57
2023/10/27 08:07:19;;;;;;;4.53;2.60;;;;;;;;;;5061346;28;20551;-57
2023/10/27 08:09:49;;;;;;;3.30;2.27;;;;;;;;;;5068126;28;20623;-57
2023/10/27 08:12:16;;;;;;;3.07;2.70;;;;;;;;;;5067613;28;20172;-57
2023/10/27 08:14:42;;;;;;;3.10;2.63;;;;;;;;;;5068386;28;20518;-58
2023/10/27 08:17:08;;;;;;;5.73;2.83;;;;;;;;;;5064694;28;20176;-56
2023/10/27 08:19:35;;;;;;;3.77;2.60;;;;;;;;;;5072333;28;20628;-59
2023/10/27 08:22:01;;;;;;;4.27;2.50;;;;;;;;;;5071418;28;20230;-56
2023/10/27 08:24:28;;;;;;;5.53;3.10;;;;;;;;;;5072365;28;20153;-57
2023/10/27 08:26:54;;;;;;;3.57;2.73;;;;;;;;;;5071898;28;20192;-55
2023/10/27 08:29:20;;;;;;;6.63;2.77;;;;;;;;;;5072009;28;20513;-55
2023/10/27 08:31:47;;;;;;;2.70;2.40;;;;;;;;;;5070162;28;20255;-55
2023/10/27 08:34:13;;;;;;;;;;;;;;;;;;5087850;28;20198;-56
2023/10/27 08:36:39;;;;;;;;;;;;;;;;;;5071533;28;19912;-56
2023/10/27 08:39:06;;;;;;;;;;;;;;;;;;5072220;28;19911;-56
2023/10/27 08:41:31;;;;;;;;;;;;;;;;;;5072001;28;20377;-56
2023/10/27 08:43:57;;;;;;;;;;;;;;;;;;5072378;28;20017;-55
2023/10/27 08:46:24;;;;;;;;;;;;;;;;;;5070356;28;20437;-56
2023/10/27 08:48:51;;;;;;;;;;;;;;;;;;5072280;28;19934;-55
2023/10/27 08:51:17;;;;;;;;;;;;;;;;;;5071174;28;19920;-56
2023/10/27 08:53:44;;;;;;;;;;;;;;;;;;5071929;28;19962;-56
2023/10/27 08:56:13;;;;;;;;;;;;;;;;;;5072112;28;19912;-56
2023/10/27 08:58:40;;;;;;;;;;;;;;;;;;5071922;28;19935;-56
2023/10/27 09:01:06;;;;;;;;;;;;;;;;;;5070862;28;19912;-55
2023/10/27 09:03:32;;;;;;;;;;;;;;;;;;5071097;28;19948;-56
2023/10/27 09:05:58;;;;;;;;;;;;;;;;;;5071409;28;20343;-56
2023/10/27 09:08:24;;;;;;;;;;;;;;;;;;5071862;28;20284;-56
2023/10/27 09:10:50;;;;;;;;;;;;;;;;;;5071162;28;19951;-57
2023/10/27 09:13:16;;;;;;;;;;;;;;;;;;5071653;28;20272;-56
2023/10/27 09:15:44;;;;;;;;;;;;;;;;;;5069684;28;19916;-56
2023/10/27 09:18:10;;;;;;;;;;;;;;;;;;5070705;28;20005;-55
2023/10/27 09:20:36;;;;;;;;;;;;;;;;;;5071076;28;19912;-55
2023/10/27 09:23:05;;;;;;;;;;;;;;;;;;5071389;28;19915;-55
2023/10/27 09:25:31;;;;;;;;;;;;;;;;;;5071249;28;20283;-55
2023/10/27 09:27:58;;;;;;;;;;;;;;;;;;5069568;28;20326;-55
2023/10/27 09:30:24;;;;;;;;;;;;;;;;;;5070700;28;19923;-56
2023/10/27 09:32:50;;;;;;;;;;;;;;;;;;5069334;28;20339;-56
2023/10/27 09:35:18;;;;;;;;;;;;;;;;;;5086372;28;19942;-55
2023/10/27 09:37:46;;;;;;;;;;;;;;;;;;5070732;28;20390;-56
2023/10/27 09:40:13;;;;;;;;;;;;;;;;;;5071055;28;20487;-56
2023/10/27 09:42:39;;;;;;;;;;;;;;;;;;5070500;28;19978;-56
2023/10/27 09:45:06;;;;;;;;;;;;;;;;;;5070696;28;20208;-57
2023/10/27 09:47:32;;;;;;;;;;;;;;;;;;5069125;28;19908;-56
2023/10/27 09:49:59;;;;;;;;;;;;;;;;;;5070850;28;19962;-56
2023/10/27 09:52:25;;;;;;;;;;;;;;;;;;5070275;28;19918;-56
2023/10/27 09:54:51;;;;;;;;;;;;;;;;;;5070857;28;20284;-57
2023/10/27 09:57:17;;;;;;;;;;;;;;;;;;5070270;28;19913;-56
2023/10/27 09:59:43;;;;;;;;;;;;;;;;;;5069305;28;19909;-56
2023/10/27 10:02:10;;;;;;;;;;;;;;;;;;5069317;28;20003;-56
2023/10/27 10:04:38;;;;;;;;;;;;;;;;;;5070592;28;19908;-56
2023/10/27 10:07:05;;;;;;;;;;;;;;;;;;5069936;28;19916;-56
2023/10/27 10:09:31;;;;;;;;;;;;;;;;;;5070636;28;20003;-56
2023/10/27 10:12:00;;;;;;;;;;;;;;;;;;5069892;28;20014;-56
2023/10/27 10:14:26;;;;;;;;;;;;;;;;;;5070636;28;20121;-56
2023/10/27 10:16:52;;;;;;;;;;;;;;;;;;5069117;28;19944;-56
2023/10/27 10:19:18;;;;;;;;;;;;;;;;;;5070594;28;20300;-55
2023/10/27 10:21:45;;;;;;;;;;;;;;;;;;5069286;28;20003;-56
2023/10/27 10:24:12;;;;;;;;;;;;;;;;;;5070547;28;19905;-56
2023/10/27 10:26:38;;;;;;;;;;;;;;;;;;5069945;28;20034;-55
2023/10/27 10:29:04;;;;;;;;;;;;;;;;;;5067430;28;19911;-55
2023/10/27 10:31:30;;;;;;;;;;;;;;;;;;5055915;28;19947;-55
2023/10/27 10:33:56;;;;;;;;;;;;;;;;;;5061879;28;20369;-56
2023/10/27 10:36:23;;;;;;;;;;;;;;;;;;5055647;28;19905;-55
2023/10/27 10:38:49;;;;;;;;;;;;;;;;;;5069889;28;20417;-56
2023/10/27 10:41:16;;;;;;;;;;;;;;;;;;5069389;28;19968;-57
2023/10/27 10:43:42;;;;;;;;;;;;;;;;;;5070057;28;20010;-57
2023/10/27 10:46:11;;;;;;;;;;;;;;;;;;5069161;28;19999;-56
2023/10/27 10:48:37;;;;;;;;;;;;;;;;;;5052701;28;19924;-57
2023/10/27 10:51:03;;;;;;;;;;;;;;;;;;5052306;28;19908;-58
2023/10/27 10:53:30;;;;;;;;;;;;;;;;;;5069520;28;19912;-57
2023/10/27 10:55:56;;;;;;;;;;;;;;;;;;5069030;28;19913;-57
2023/10/27 10:58:22;;;;;;;;;;;;;;;;;;5069742;28;19995;-56
2023/10/27 11:00:48;;;;;;;;;;;;;;;;;;5069102;28;20426;-56
2023/10/27 11:03:14;;;;;;;;;;;;;;;;;;5057221;28;19915;-56
2023/10/27 11:05:41;;;;;;;;;;;;;;;;;;5049386;28;19905;-56
2023/10/27 11:08:07;;;;;;;;;;;;;;;;;;5069600;28;19971;-57
2023/10/27 11:10:34;;;;;;;;;;;;;;;;;;5068733;28;19950;-59
2023/10/27 11:13:00;;;;;;;;;;;;;;;;;;5069203;28;19908;-58
2023/10/27 11:15:26;;;;;;;;;;;;;;;;;;5069246;28;19923;-58
2023/10/27 11:17:54;;;;;;;;;;;;;;;;;;5068053;28;19912;-58
2023/10/27 11:20:20;;;;;;;;;;;;;;;;;;5068689;28;19913;-58
2023/10/27 11:22:46;;;;;;;;;;;;;;;;;;5068774;28;20035;-57
2023/10/27 11:25:12;;;;;;;;;;;;;;;;;;5068774;28;19919;-57
2023/10/27 11:27:38;;;;;;;;;;;;;;;;;;5068641;28;19950;-57
2023/10/27 11:30:07;;;;;;;;;;;;;;;;;;5068773;28;19912;-57
2023/10/27 11:32:33;;;;;;;;;;;;;;;;;;5062018;28;20351;-57
2023/10/27 11:35:00;;;;;;;;;;;;;;;;;;5048957;28;20300;-57
2023/10/27 11:37:26;;;;;;;;;;;;;;;;;;5062980;28;19944;-57
2023/10/27 11:39:52;;;;;;;;;;;;;;;;;;5068660;28;19908;-57
2023/10/27 11:42:18;;;;;;;;;;;;;;;;;;5068611;28;20324;-57
2023/10/27 11:44:45;;;;;;;;;;;;;;;;;;5067489;28;19980;-58
2023/10/27 11:47:11;;;;;;;;;;;;;;;;;;5064162;28;19954;-56
2023/10/27 11:49:37;;;;;;;;;;;;;;;;;;5068095;28;20392;-56
2023/10/27 11:52:04;;;;;;;;;;;;;;;;;;5066241;28;20265;-56
2023/10/27 11:54:31;;;;;;;;;;;;;;;;;;5073404;28;19912;-56
2023/10/27 11:56:57;;;;;;;;;;;;;;;;;;5075115;28;20443;-56
2023/10/27 11:59:26;;;;;;;;;;;;;;;;;;5074971;28;20319;-56
2023/10/27 12:01:52;;;;;;;;;;;;;;;;;;5066432;28;19948;-56
2023/10/27 12:04:18;;;;;;;;;;;;;;;;;;5071798;28;19909;-56
2023/10/27 12:06:45;;;;;;;;;;;;;;;;;;5074288;28;20007;-56
2023/10/27 12:09:14;;;;;;;;;;;;;;;;;;5073884;28;19941;-56
2023/10/27 12:11:43;;;;;;;;;;;;;;;;;;5074620;28;19912;-57
2023/10/27 12:14:10;;;;;;;;;;;;;;;;;;5075203;28;19915;-56
2023/10/27 12:16:36;;;;;;;;;;;;;;;;;;5069846;28;19917;-55
2023/10/27 12:19:02;;;;;;;;;;;;;;;;;;5071060;28;19958;-56
2023/10/27 12:21:28;;;;;;;;;;;;;;;;;;5072956;28;20355;-56
2023/10/27 12:23:54;;;;;;;;;;;;;;;;;;5070714;28;19998;-56
2023/10/27 12:26:20;;;;;;;;;;;;;;;;;;5073850;28;20011;-56
2023/10/27 12:28:50;;;;;;;;;;;;;;;;;;5074117;28;19955;-55
2023/10/27 12:31:16;;;;;;;;;;;;;;;;;;5072121;28;19963;-56
2023/10/27 12:33:43;;;;;;;;;;;;;;;;;;5066688;28;19954;-55
2023/10/27 12:36:09;;;;;;;;;;;;;;;;;;5073755;28;19908;-56
2023/10/27 12:38:35;;;;;;;;;;;;;;;;;;5072064;28;19919;-55
2023/10/27 12:41:03;;;;;;;;;;;;;;;;;;5074907;28;19944;-55
2023/10/27 12:43:29;;;;;;;;;;;;;;;;;;5066744;28;19912;-55
2023/10/27 12:45:55;;;;;;;;;;;;;;;;;;5074193;28;20424;-56
2023/10/27 12:48:21;;;;;;;;;;;;;;;;;;5071435;28;19912;-55
2023/10/27 12:50:47;;;;;;;;;;;;;;;;;;5072727;28;20364;-56
2023/10/27 12:53:13;;;;;;;;;;;;;;;;;;5073067;28;20271;-55
2023/10/27 12:55:39;;;;;;;;;;;;;;;;;;5056933;28;19958;-56
2023/10/27 12:58:08;;;;;;;;;;;;;;;;;;5071267;28;19924;-57
2023/10/27 13:00:35;;;;;;;;;;;;;;;;;;5056556;28;19909;-56
2023/10/27 13:03:01;;;;;;;;;;;;;;;;;;5072145;28;19958;-57
2023/10/27 13:05:27;;;;;;;;;;;;;;;;;;5067301;28;19920;-57
2023/10/27 13:07:54;;;;;;;;;;;;;;;;;;5071662;28;20420;-57
2023/10/27 13:10:22;;;;;;;;;;;;;;;;;;5075715;28;19922;-57
2023/10/27 13:12:49;;;;;;;;;;;;;;;;;;5073308;28;19999;-57
2023/10/27 13:15:15;;;;;;;;;;;;;;;;;;5070239;28;20266;-57
2023/10/27 13:17:41;;;;;;;;;;;;;;;;;;5068356;28;19912;-57
2023/10/27 13:20:09;;;;;;;;;;;;;;;;;;5071265;28;19924;-57
2023/10/27 13:22:35;;;;;;;;;;;;;;;;;;5069653;28;19917;-58
2023/10/27 13:25:01;;;;;;;;;;;;;;;;;;5063371;28;19982;-59
2023/10/27 13:27:27;;;;;;;;;;;;;;;;;;5059133;28;20474;-58
2023/10/27 13:29:57;;;;;;;;;;;;;;;;;;5061568;28;19912;-58
2023/10/27 13:32:23;;;;;;;;;;;;;;;;;;5070074;28;19920;-58
2023/10/27 13:34:49;;;;;;;;;;;;;;;;;;5070772;28;19909;-57
2023/10/27 13:37:15;;;;;;;;;;;;;;;;;;5063446;28;19935;-56
2023/10/27 13:39:41;;;;;;;;;;;;;;;;;;5068123;28;19940;-57
2023/10/27 13:42:08;;;;;;;;;;;;;;;;;;5070771;28;19912;-57
2023/10/27 13:44:34;;;;;;;;;;;;;;;;;;5076078;28;19911;-57
2023/10/27 13:47:00;;;;;;;;;;;;;;;;;;5077827;28;19915;-56
2023/10/27 13:49:26;;;;;;;;;;;;;;;;;;5063328;28;19912;-56
2023/10/27 13:51:52;;;;;;;;;;;;;;;;;;5062285;28;19963;-56
2023/10/27 13:54:18;;;;;;;;;;;;;;;;;;5070029;28;19912;-57
2023/10/27 13:56:44;;;;;;;;;;;;;;;;;;5059302;28;19917;-56
2023/10/27 13:59:10;;;;;;;;;;;;;;;;;;5058431;28;19973;-56
2023/10/27 14:01:37;;;;;;;;;;;;;;;;;;5069468;28;20410;-56
2023/10/27 14:04:04;;;;;;;;;;;;;;;;;;5063564;28;19999;-57
2023/10/27 14:06:32;;;;;;;;;;;;;;;;;;5063259;28;19963;-57
2023/10/27 14:08:58;;;;;;;;;;;;;;;;;;5075853;28;20045;-56
2023/10/27 14:11:24;;;;;;;;;;;;;;;;;;5059671;28;19927;-56
2023/10/27 14:13:50;;;;;;;;;;;;;;;;;;5067849;28;19912;-56
2023/10/27 14:16:18;;;;;;;;;;;;;;;;;;5065316;28;20720;-55
2023/10/27 14:18:44;;;;;;;;;;;;;;;;;;5067900;28;19953;-56
2023/10/27 14:21:10;;;;;;;;;;;;;;;;;;5067352;28;19976;-56
2023/10/27 14:23:37;;;;;;;;;;;;;;;;;;5065170;28;20307;-55
2023/10/27 14:26:03;;;;;;;;;;;;;;;;;;5068948;28;19912;-56
2023/10/27 14:28:30;;;;;;;;;;;;;;;;;;5069775;28;19931;-56
2023/10/27 14:30:56;;;;;;;;;;;;;;;;;;5067439;28;19916;-55
2023/10/27 14:33:22;;;;;;;;;;;;;;;;;;5067679;28;19922;-55
2023/10/27 14:35:48;;;;;;;;;;;;;;;;;;5067780;28;19990;-55
2023/10/27 14:38:14;;;;;;;;;;;;;;;;;;5069434;28;20316;-55
2023/10/27 14:40:40;;;;;;;;;;;;;;;;;;5069011;28;19909;-55
2023/10/27 14:43:07;;;;;;;;;;;;;;;;;;5069082;28;19947;-55
2023/10/27 14:45:33;;;;;;;;;;;;;;;;;;5069019;28;19951;-55
2023/10/27 14:47:59;;;;;;;;;;;;;;;;;;5071275;28;19955;-55
2023/10/27 14:50:25;;;;;;;;;;;;;;;;;;5068349;28;19951;-57
2023/10/27 14:52:53;;;;;;;;;;;;;;;;;;5066145;28;19908;-56
2023/10/27 14:55:19;;;;;;;;;;;;;;;;;;5065797;28;19912;-55
2023/10/27 14:57:45;;;;;;;;;;;;;;;;;;5065841;28;20352;-55
2023/10/27 15:00:12;;;;;;;;;;;;;;;;;;5063668;28;20279;-57
2023/10/27 15:02:38;;;;;;;;;;;;;;;;;;5064623;28;20229;-55
2023/10/27 15:05:04;;;;;;;;;;;;;;;;;;5068569;28;20342;-55
2023/10/27 15:07:30;;;;;;;;;;;;;;;;;;5067115;28;20265;-55
2023/10/27 15:09:57;;;;;;;;;;;;;;;;;;5066617;28;19963;-55
2023/10/27 15:12:23;;;;;;;;;;;;;;;;;;5062811;28;20007;-55
2023/10/27 15:14:50;;;;;;;;;;;;;;;;;;5068472;28;20379;-55
2023/10/27 15:17:17;;;;;;;;;;;;;;;;;;5067807;28;20304;-55
2023/10/27 15:19:43;;;;;;;;;;;;;;;;;;5068455;28;19919;-56
2023/10/27 15:22:12;;;;;;;;;;;;;;;;;;5073711;28;19912;-56
2023/10/27 15:24:38;;;;;;;;;;;;;;;;;;5061617;28;19908;-56
2023/10/27 15:27:04;;;;;;;;;;;;;;;;;;5063219;28;20007;-56
2023/10/27 15:29:32;;;;;;;;;;;;;;;;;;5066424;28;20309;-56
2023/10/27 15:31:58;;;;;;;;;;;;;;;;;;5066745;28;20318;-56
2023/10/27 15:34:25;;;;;;;;;;;;;;;;;;5062702;28;19909;-56
2023/10/27 15:36:52;;;;;;;;;;;;;;;;;;5062528;28;19908;-56
2023/10/27 15:39:18;;;;;;;;;;;;;;;;;;5066859;28;20209;-56
2023/10/27 15:41:46;;;;;;;;;;;;;;;;;;5067468;28;20284;-57
2023/10/27 15:44:13;;;;;;;;;;;;;;;;;;5083610;28;19915;-57
2023/10/27 15:46:41;;;;;;;;;;;;;;;;;;5066032;28;19966;-56
2023/10/27 15:49:07;;;;;;;;;;;;;;;;;;5067157;28;19916;-56
2023/10/27 15:51:33;;;;;;;;;;;;;;;;;;5063693;28;20008;-57
2023/10/27 15:53:59;;;;;;;;;;;;;;;;;;5067709;28;19912;-57
2023/10/27 15:56:28;;;;;;;;;;;;;;;;;;5064473;28;19915;-57
2023/10/27 15:58:54;;;;;;;;;;;;;;;;;;5068300;28;19908;-60
2023/10/27 16:01:23;;;;;;;;;;;;;;;;;;5066592;28;19934;-56
2023/10/27 16:03:49;;;;;;;;;;;;;;;;;;5060176;28;19919;-56
2023/10/27 16:06:15;;;;;;;;;;;;;;;;;;5068403;28;19909;-57
2023/10/27 16:08:41;;;;;;;;;;;;;;;;;;5068579;28;19961;-56
2023/10/27 16:11:08;;;;;;;;;;;;;;;;;;5067176;28;19947;-57
2023/10/27 16:13:34;;;;;;;;;;;;;;;;;;5066105;28;19912;-56
2023/10/27 16:16:01;;;;;;;;;;;;;;;;;;5067866;28;19912;-56
2023/10/27 16:18:28;;;;;;;;;;;;;;;;;;5065665;28;20065;-56
2023/10/27 16:20:54;;;;;;;;;;;;;;;;;;5065370;28;19931;-56
2023/10/27 16:23:20;;;;;;;;;;;;;;;;;;5067967;28;20015;-56
2023/10/27 16:25:46;;;;;;;;;;;;;;;;;;5067611;28;20334;-56
2023/10/27 16:28:12;;;;;;;;;;;;;;;;;;5068697;28;19919;-56